EKYT/AAL METAR and TAF weather

Enter ICAO airport designator
Station Type Date Time Source
EKYT METAR 2018/07/19 06:50 UTC NOAA

EKYT 190650Z AUTO 27013KT 9999NDV NCD 18/14 Q1016


Station Type Date Time Source
EKYT Decoded METAR 2018/07/19 06:50 UTC NOAA

Aalborg, Denmark (EKYT) 57-06N 009-51E 13M
Jul 19, 2018 - 02:50 AM EDT / 2018.07.19 0650 UTC
Wind: from the W (270 degrees) at 15 MPH (13 KT):0
Temperature: 64 F (18 C)
Dew Point: 57 F (14 C)
Relative Humidity: 77%
Pressure (altimeter): 30.00 in. Hg (1016 hPa)
ob: EKYT 190650Z AUTO 27013KT 9999NDV NCD 18/14 Q1016
cycle: 7

Station Type Date Time Source
EKYT TAF 2018/07/19 06:08 UTC NOAA

TAF EKYT 190451Z 1906/2006 26012KT 9999 FEW025
TEMPO 1912/1918 27013G23KT
TEMPO 1921/2004 BKN012
TEMPO 2004/2006 27013G23KT


Example: see airport list